Apalachicola, FL

9:29 AM EST on November 23, 2014 (GMT -0500)
Apalachicola Municipal | Change Station
CLOSE
Current Station
Airport
Location: Apalachicola,
Elevation: 20 ft
Nearby Weather Stations
Active Advisory: Coastal Hazard Statement Active Notice: Record Report

Elev 20 ft 29.73 °N, 85.03 °W | Updated 36 minutes ago

Overcast
Overcast
72 °F
Feels Like 72 °F
N
12
Wind Variable Wind from SE

Today
High -- | Low -- °F
--% Chance of Precip.
Yesterday
High -- | Low -- °F
Precip. -- in
7:11 AM 5:41 PM
New Moon, 1% visible
Pressure 29.92 in
Visibility 4.0 miles
Clouds Overcast 500 ft
Dew Point 68 °F
Humidity 87%
Rainfall 0.83 in
Snow Depth Not available.
UV 0 out of 12
Pollen .50 out of 12
Air Quality Not available.
Flu Activity Not available.
METAR KAAF 231353Z AUTO 14010KT 4SM BR OVC005 22/20 A2992 RMK AO2 RAB00E19 SLP130 P0000 T02220200 TSNO

More Conditions Fewer Conditions

Pressure 29.92 in
Visibility 4.0 miles
Clouds Overcast 500 ft
Dew Point 68 °F
Humidity 87%
Rainfall 0.83 in
Snow Depth Not available.
UV 0 out of 12
Pollen .50 out of 12
Air Quality Not available.
Flu Activity Not available.
METAR KAAF 231353Z AUTO 14010KT 4SM BR OVC005 22/20 A2992 RMK AO2 RAB00E19 SLP130 P0000 T02220200 TSNO

More Conditions Fewer Conditions

10-Day Weather Forecast

Almanac

Astronomy

Nov. 23, 2014 Rise Set
Actual Time
Civil Twilight
Nautical Twilight
Astronomical Twilight
Moon
Length of Visible Light
Length of Day
Tomorrow will be .
, % of the Moon is Illuminated

Today's Extremes

State Highs State Lows

Community

WunderPhotos

Upload Photos

1,773,073 photos uploaded!

WunderBlogs® & News

Nearby

Air Quality

  Air Quality AQ Index Pollutant
Not available.

Snow Depth

Station Depth Elevation

Earthquake Activity

City Distance Mag. Time & Date
Minimum magnitude displayed is 2.5.

Coastal Water Temperatures

Place Temperature

Nearby Weather Stations